Time;durP1;ratioP1;P1;durP2;ratioP2;P2;SDS_P1;SDS_P2;PMS_P1;PMS_P2;Temp;Humidity;BMP_temperature;BMP_pressure;BME280_temperature;BME280_humidity;BME280_pressure;Samples;Min_cycle;Max_cycle;Signal;HPM_P1;HPM_P2
2023/01/20 00:00:37;;;;;;;49.22;32.88;;;;;;;-0.39;100.00;101030.47;5051612;28;20040;-59
2023/01/20 00:03:02;;;;;;;50.58;33.35;;;;;;;-0.40;100.00;101034.84;5054612;28;20029;-59
2023/01/20 00:05:27;;;;;;;52.15;32.53;;;;;;;-0.41;100.00;101035.72;5054977;28;20471;-59
2023/01/20 00:07:53;;;;;;;53.35;34.83;;;;;;;-0.43;100.00;101045.34;5054249;28;20025;-59
2023/01/20 00:10:18;;;;;;;56.22;34.00;;;;;;;-0.43;100.00;101047.13;5052231;28;20382;-60
2023/01/20 00:12:43;;;;;;;54.55;34.17;;;;;;;-0.44;100.00;101048.84;5054415;28;20029;-59
2023/01/20 00:15:09;;;;;;;55.92;33.78;;;;;;;-0.44;100.00;101048.84;5053324;28;20079;-60
2023/01/20 00:17:34;;;;;;;54.90;34.45;;;;;;;-0.45;100.00;101046.28;5054071;28;20049;-59
2023/01/20 00:20:00;;;;;;;56.38;33.63;;;;;;;-0.44;100.00;101051.47;5054764;28;20016;-59
2023/01/20 00:22:25;;;;;;;49.55;31.25;;;;;;;-0.44;100.00;101054.06;5054791;28;20086;-60
2023/01/20 00:24:50;;;;;;;50.13;30.00;;;;;;;-0.43;100.00;101052.34;5054012;28;20037;-59
2023/01/20 00:27:16;;;;;;;48.03;29.85;;;;;;;-0.43;100.00;101049.72;5052669;28;20165;-59
2023/01/20 00:29:43;;;;;;;51.70;31.30;;;;;;;-0.43;100.00;101054.94;5043548;28;20528;-59
2023/01/20 00:32:11;;;;;;;48.17;30.80;;;;;;;-0.44;100.00;101055.84;5050373;28;20052;-59
2023/01/20 00:34:37;;;;;;;47.72;29.88;;;;;;;-0.44;100.00;101054.06;5055049;28;20103;-59
2023/01/20 00:37:02;;;;;;;50.78;30.55;;;;;;;-0.44;100.00;101064.50;5051293;28;20057;-60
2023/01/20 00:39:27;;;;;;;50.67;29.92;;;;;;;-0.43;100.00;101055.78;5054220;28;20467;-59
2023/01/20 00:41:53;;;;;;;50.35;29.63;;;;;;;-0.43;100.00;101061.00;5053950;28;20107;-59
2023/01/20 00:44:18;;;;;;;54.53;31.83;;;;;;;-0.44;100.00;101064.50;5054300;28;20029;-60
2023/01/20 00:46:43;;;;;;;50.25;30.15;;;;;;;-0.45;100.00;101068.03;5052633;28;20103;-59
2023/01/20 00:49:09;;;;;;;50.13;29.10;;;;;;;-0.44;100.00;101069.72;5054296;28;20029;-59
2023/01/20 00:51:34;;;;;;;53.58;31.60;;;;;;;-0.45;100.00;101067.16;5035129;28;20033;-60
2023/01/20 00:54:00;;;;;;;51.78;30.95;;;;;;;-0.46;100.00;101068.06;5054300;28;20025;-59
2023/01/20 00:56:25;;;;;;;51.40;31.63;;;;;;;-0.46;100.00;101070.69;5053885;28;20052;-60
2023/01/20 00:58:50;;;;;;;53.08;33.03;;;;;;;-0.47;100.00;101075.03;5049536;28;20029;-59
2023/01/20 01:01:16;;;;;;;54.33;30.20;;;;;;;-0.49;100.00;101082.03;5048888;28;20017;-61
2023/01/20 01:03:42;;;;;;;55.63;32.58;;;;;;;-0.48;100.00;101082.91;5053550;28;20045;-60
2023/01/20 01:06:10;;;;;;;50.83;30.08;;;;;;;-0.50;100.00;101080.34;5053448;28;20048;-60
2023/01/20 01:08:36;;;;;;;53.83;31.23;;;;;;;-0.49;100.00;101089.03;5048508;28;20386;-58
2023/01/20 01:11:02;;;;;;;51.03;28.10;;;;;;;-0.51;100.00;101083.00;5048990;28;20112;-60
2023/01/20 01:13:28;;;;;;;52.20;28.25;;;;;;;-0.51;100.00;101093.44;5052752;28;20433;-59
2023/01/20 01:15:53;;;;;;;47.33;27.95;;;;;;;-0.52;100.00;101095.16;5051904;28;20032;-59
2023/01/20 01:18:18;;;;;;;47.67;26.98;;;;;;;-0.54;100.00;101106.56;5053568;28;20045;-59
2023/01/20 01:20:43;;;;;;;44.13;26.63;;;;;;;-0.53;100.00;101100.44;5053048;28;20028;-60
2023/01/20 01:23:10;;;;;;;49.85;27.15;;;;;;;-0.52;100.00;101108.22;5045998;28;20045;-59
2023/01/20 01:25:38;;;;;;;49.85;26.58;;;;;;;-0.52;100.00;101105.59;5053104;28;20063;-59
2023/01/20 01:28:03;;;;;;;51.25;27.08;;;;;;;-0.52;100.00;101110.81;5035086;28;20464;-59
2023/01/20 01:30:29;;;;;;;47.25;27.27;;;;;;;-0.51;100.00;101109.09;5048492;28;20029;-59
2023/01/20 01:32:54;;;;;;;47.88;26.38;;;;;;;-0.51;100.00;101106.50;5049310;28;20021;-59
2023/01/20 01:35:19;;;;;;;49.08;27.42;;;;;;;-0.52;100.00;101108.22;5052701;28;20126;-59
2023/01/20 01:37:45;;;;;;;47.28;26.58;;;;;;;-0.50;100.00;101111.66;5053039;28;20037;-59
2023/01/20 01:40:10;;;;;;;51.97;26.88;;;;;;;-0.51;100.00;101111.69;5050944;28;20040;-60
2023/01/20 01:42:36;;;;;;;48.63;25.90;;;;;;;-0.52;100.00;101123.88;5053264;28;20029;-59
2023/01/20 01:45:10;;;;;;;47.72;26.38;;;;;;;-0.52;100.00;101116.03;5045123;28;20022;-59
2023/01/20 01:47:43;;;;;;;46.28;25.15;;;;;;;-0.50;100.00;101110.78;5052931;28;20048;-59
2023/01/20 01:50:15;;;;;;;49.25;25.77;;;;;;;-0.49;100.00;101113.34;5041829;28;20116;-59
2023/01/20 01:52:43;;;;;;;49.95;26.05;;;;;;;-0.48;100.00;101120.31;5052877;28;20567;-59
2023/01/20 01:55:10;;;;;;;47.33;25.67;;;;;;;-0.47;100.00;101113.31;5049860;28;20124;-59
2023/01/20 01:57:35;;;;;;;46.28;24.90;;;;;;;-0.46;100.00;101118.50;5052693;28;20822;-59
2023/01/20 02:00:03;;;;;;;51.00;26.73;;;;;;;-0.46;100.00;101118.50;5051274;28;20964;-59
2023/01/20 02:02:28;;;;;;;51.85;27.48;;;;;;;-0.45;100.00;101116.75;5052788;28;20108;-59
2023/01/20 02:04:54;;;;;;;52.13;27.90;;;;;;;-0.44;100.00;101105.41;5051916;28;20112;-59
2023/01/20 02:07:20;;;;;;;51.22;26.50;;;;;;;-0.43;100.00;101114.97;5050147;28;20024;-59
2023/01/20 02:09:46;;;;;;;54.72;27.05;;;;;;;-0.42;100.00;101111.44;5052546;28;20025;-59
2023/01/20 02:12:16;;;;;;;53.85;27.02;;;;;;;-0.44;100.00;101124.53;5046690;28;20033;-59
2023/01/20 02:14:49;;;;;;;58.55;28.05;;;;;;;-0.42;100.00;101119.28;5051292;28;20052;-59
2023/01/20 02:17:57;;;;;;;59.28;28.48;;;;;;;-0.44;100.00;101127.13;5042445;28;20041;-59
2023/01/20 02:20:42;;;;;;;55.83;27.13;;;;;;;-0.45;100.00;101122.84;4965697;28;20050;-59
2023/01/20 02:23:28;;;;;;;55.03;26.08;;;;;;;-0.43;100.00;101126.25;5045167;28;20099;-59
2023/01/20 02:26:11;;;;;;;52.63;25.58;;;;;;;-0.42;100.00;101124.50;5050016;28;20086;-59
2023/01/20 02:28:45;;;;;;;53.90;26.35;;;;;;;-0.42;100.00;101124.50;5039880;28;20472;-60
2023/01/20 02:31:59;;;;;;;48.85;26.08;;;;;;;-0.37;100.00;101133.06;5040178;28;20506;-59
2023/01/20 02:34:57;;;;;;;45.55;23.85;;;;;;;-0.38;100.00;101132.19;5039348;28;20043;-59
2023/01/20 02:37:27;;;;;;;50.55;26.45;;;;;;;-0.40;100.00;101139.22;5036533;28;20422;-60
2023/01/20 02:40:17;;;;;;;48.47;24.90;;;;;;;-0.39;100.00;101140.06;5022834;28;20028;-59
2023/01/20 02:43:10;;;;;;;52.72;26.75;;;;;;;-0.41;100.00;101136.66;5043168;28;20121;-59
2023/01/20 02:45:47;;;;;;;47.63;24.98;;;;;;;-0.43;100.00;101131.47;5047010;28;20036;-59
2023/01/20 02:48:36;;;;;;;50.28;25.00;;;;;;;-0.45;100.00;101130.66;5051719;28;20052;-59
2023/01/20 02:51:11;;;;;;;53.38;26.13;;;;;;;-0.45;100.00;101141.09;5031658;28;20083;-59
2023/01/20 02:53:47;;;;;;;47.38;24.92;;;;;;;-0.45;100.00;101135.88;5046378;28;20494;-60
2023/01/20 02:56:13;;;;;;;51.10;25.55;;;;;;;-0.46;100.00;101135.91;5042546;28;20037;-60
2023/01/20 02:58:49;;;;;;;47.15;24.60;;;;;;;-0.48;100.00;101138.56;5051319;28;20055;-60
2023/01/20 03:01:23;;;;;;;57.22;26.00;;;;;;;-0.47;100.00;101136.81;5051886;28;20036;-59
2023/01/20 03:03:52;;;;;;;52.30;26.20;;;;;;;-0.47;100.00;101134.19;5039502;28;20504;-59
2023/01/20 03:06:23;;;;;;;47.22;23.65;;;;;;;-0.48;100.00;101143.78;5051814;28;20029;-60
2023/01/20 03:08:51;;;;;;;50.72;25.70;;;;;;;-0.50;100.00;101136.88;5039177;28;20487;-60
2023/01/20 03:11:17;;;;;;;44.40;24.85;;;;;;;-0.53;100.00;101143.06;5042314;28;20116;-59
2023/01/20 03:13:53;;;;;;;50.25;25.77;;;;;;;-0.52;100.00;101136.06;5051580;28;20037;-60
2023/01/20 03:16:22;;;;;;;52.72;25.65;;;;;;;-0.52;100.00;101138.69;5046643;28;20029;-59
2023/01/20 03:18:48;;;;;;;46.15;24.58;;;;;;;-0.52;100.00;101147.34;5047763;28;20033;-60
2023/01/20 03:21:14;;;;;;;52.15;26.02;;;;;;;-0.54;100.00;101149.16;5051838;28;20021;-59
2023/01/20 03:23:52;;;;;;;47.90;25.38;;;;;;;-0.52;100.00;101146.50;5041085;28;20029;-59
2023/01/20 03:26:19;;;;;;;53.13;25.10;;;;;;;-0.53;100.00;101143.06;5043116;28;20399;-59
2023/01/20 03:28:45;;;;;;;47.00;24.70;;;;;;;-0.54;100.00;101143.94;5050653;28;20031;-59
2023/01/20 03:31:24;;;;;;;53.70;25.60;;;;;;;-0.55;100.00;101142.22;5043509;28;20033;-59
2023/01/20 03:33:53;;;;;;;53.03;24.90;;;;;;;-0.53;100.00;101157.81;5049654;28;20025;-59
2023/01/20 03:36:22;;;;;;;50.38;25.50;;;;;;;-0.52;100.00;101156.94;5047939;28;20045;-59
2023/01/20 03:38:48;;;;;;;51.55;26.40;;;;;;;-0.51;100.00;101161.28;5055429;28;20025;-59
2023/01/20 03:41:26;;;;;;;46.47;25.02;;;;;;;-0.52;100.00;101160.41;5054983;28;20454;-59
2023/01/20 03:44:02;;;;;;;47.28;25.10;;;;;;;-0.50;100.00;101163.84;5043538;28;20061;-59
2023/01/20 03:46:37;;;;;;;50.53;24.45;;;;;;;-0.50;100.00;101163.84;5054891;28;20124;-56
2023/01/20 03:49:24;;;;;;;50.95;26.60;;;;;;;-0.49;100.00;101164.69;5050841;28;20499;-58
2023/01/20 03:52:07;;;;;;;54.97;26.90;;;;;;;-0.51;100.00;101164.72;5054754;28;20024;-59
2023/01/20 03:54:44;;;;;;;59.78;28.60;;;;;;;-0.50;100.00;101161.25;5054728;28;20041;-59
2023/01/20 03:57:27;;;;;;;57.53;28.08;;;;;;;-0.50;100.00;101158.63;5053855;28;20021;-57
2023/01/20 03:59:53;;;;;;;56.63;29.25;;;;;;;-0.51;100.00;101164.72;5054426;28;20166;-58
2023/01/20 04:02:19;;;;;;;56.88;29.65;;;;;;;-0.51;100.00;101161.28;5054873;28;20025;-58
2023/01/20 04:04:47;;;;;;;56.47;29.05;;;;;;;-0.50;100.00;101178.63;5045720;28;20027;-57
2023/01/20 04:07:24;;;;;;;52.97;28.35;;;;;;;-0.51;100.00;101175.16;5062572;28;20016;-60
2023/01/20 04:09:57;;;;;;;58.15;28.67;;;;;;;-0.54;100.00;101167.41;5048694;28;20034;-59
2023/01/20 04:12:23;;;;;;;55.50;29.95;;;;;;;-0.56;100.00;101171.81;5050419;28;20079;-59
2023/01/20 04:14:48;;;;;;;55.00;30.50;;;;;;;-0.56;100.00;101170.06;5054594;28;20501;-57
2023/01/20 04:17:14;;;;;;;57.35;28.85;;;;;;;-0.55;100.00;101165.69;5054345;28;20250;-58
2023/01/20 04:19:39;;;;;;;57.33;30.30;;;;;;;-0.56;100.00;101174.44;5048527;28;20079;-58
2023/01/20 04:22:14;;;;;;;60.30;29.45;;;;;;;-0.58;100.00;101179.69;5050792;28;20028;-59
2023/01/20 04:24:51;;;;;;;53.15;28.17;;;;;;;-0.60;100.00;101168.44;5054615;28;20033;-59
2023/01/20 04:27:16;;;;;;;55.53;28.35;;;;;;;-0.61;100.00;101177.16;5053000;28;20051;-58
2023/01/20 04:29:41;;;;;;;51.97;27.73;;;;;;;-0.62;100.00;101175.41;5054546;28;20021;-58
2023/01/20 04:32:09;;;;;;;50.60;27.48;;;;;;;-0.61;100.00;101166.72;5054148;28;20017;-58
2023/01/20 04:34:34;;;;;;;48.67;26.25;;;;;;;-0.66;100.00;101172.94;5054507;28;20025;-57
2023/01/20 04:37:00;;;;;;;51.42;26.48;;;;;;;-0.65;100.00;101170.31;5051134;28;20029;-57
2023/01/20 04:39:25;;;;;;;50.70;27.38;;;;;;;-0.63;100.00;101171.13;5054174;28;20111;-58
2023/01/20 04:41:50;;;;;;;49.42;27.77;;;;;;;-0.64;100.00;101169.41;5049975;28;20025;-58
2023/01/20 04:44:15;;;;;;;52.90;27.27;;;;;;;-0.60;100.00;101175.38;5045901;28;20029;-58
2023/01/20 04:46:41;;;;;;;56.85;28.10;;;;;;;-0.64;100.00;101177.22;5047384;28;20371;-59
2023/01/20 04:49:06;;;;;;;46.00;27.27;;;;;;;-0.63;100.00;101183.31;5054021;28;20029;-58
2023/01/20 04:51:32;;;;;;;56.67;28.25;;;;;;;-0.62;100.00;101185.00;5046167;28;20071;-57
2023/01/20 04:53:58;;;;;;;53.47;27.20;;;;;;;-0.64;100.00;101190.25;5054009;28;20467;-58
2023/01/20 04:56:24;;;;;;;52.60;27.75;;;;;;;-0.62;100.00;101185.84;5053725;28;20032;-59
2023/01/20 04:58:49;;;;;;;54.72;27.65;;;;;;;-0.62;100.00;101187.63;5050086;28;20036;-59
2023/01/20 05:01:14;;;;;;;50.65;27.38;;;;;;;-0.61;100.00;101184.13;5053612;28;20036;-59
2023/01/20 05:03:40;;;;;;;55.08;28.98;;;;;;;-0.62;100.00;101188.47;5051194;28;20017;-59
2023/01/20 05:06:05;;;;;;;57.10;29.05;;;;;;;-0.65;100.00;101193.78;5051666;28;20028;-59
2023/01/20 05:08:31;;;;;;;57.38;29.02;;;;;;;-0.65;100.00;101190.28;5053773;28;20021;-57
2023/01/20 05:10:56;;;;;;;55.47;28.67;;;;;;;-0.65;100.00;101190.28;5053400;28;20060;-58
2023/01/20 05:13:21;;;;;;;54.60;29.52;;;;;;;-0.62;100.00;101192.84;5032897;28;20040;-59
2023/01/20 05:15:47;;;;;;;56.95;28.98;;;;;;;-0.61;100.00;101190.19;5051275;28;20013;-59
2023/01/20 05:18:12;;;;;;;51.38;28.30;;;;;;;-0.59;100.00;101190.16;5053435;28;20064;-59
2023/01/20 05:20:38;;;;;;;53.20;28.90;;;;;;;-0.60;100.00;101188.44;5053480;28;20021;-58
2023/01/20 05:23:03;;;;;;;49.08;26.90;;;;;;;-0.60;100.00;101191.03;5050295;28;20033;-59
2023/01/20 05:25:29;;;;;;;56.67;29.17;;;;;;;-0.60;100.00;101198.88;5053168;28;20099;-59
2023/01/20 05:27:54;;;;;;;55.88;29.13;;;;;;;-0.60;100.00;101206.69;5053266;28;20028;-59
2023/01/20 05:30:20;;;;;;;52.38;26.80;;;;;;;-0.60;100.00;101207.56;5047848;28;20028;-59
2023/01/20 05:32:48;;;;;;;57.78;28.10;;;;;;;-0.62;100.00;101201.50;5053329;28;20028;-58
2023/01/20 05:35:14;;;;;;;58.25;27.42;;;;;;;-0.60;100.00;101209.31;5051144;28;20111;-59
2023/01/20 05:37:39;;;;;;;54.03;27.45;;;;;;;-0.61;100.00;101198.03;5053146;28;20602;-58
2023/01/20 05:40:05;;;;;;;52.22;27.52;;;;;;;-0.61;100.00;101194.56;5052796;28;20031;-59
2023/01/20 05:42:31;;;;;;;58.17;27.58;;;;;;;-0.62;100.00;101198.06;5025170;28;20030;-58
2023/01/20 05:44:57;;;;;;;52.42;26.92;;;;;;;-0.61;100.00;101202.38;5050076;28;20136;-57
2023/01/20 05:47:22;;;;;;;57.60;27.70;;;;;;;-0.63;100.00;101185.94;5034909;28;20100;-58
2023/01/20 05:49:47;;;;;;;55.22;27.40;;;;;;;-0.65;100.00;101191.19;5043374;28;20032;-59
2023/01/20 05:52:13;;;;;;;57.40;27.85;;;;;;;-0.63;100.00;101202.44;5049974;28;20041;-59
2023/01/20 05:54:38;;;;;;;50.20;27.67;;;;;;;-0.62;100.00;101213.72;5049108;28;20519;-58
2023/01/20 05:57:04;;;;;;;52.08;26.35;;;;;;;-0.61;100.00;101210.22;5052687;28;20410;-59
2023/01/20 05:59:30;;;;;;;48.42;26.45;;;;;;;-0.62;100.00;101217.16;5051831;28;20438;-58
2023/01/20 06:01:55;;;;;;;51.63;26.15;;;;;;;-0.61;100.00;101213.66;5052239;28;20036;-60
2023/01/20 06:04:21;;;;;;;56.75;27.55;;;;;;;-0.62;100.00;101211.94;5048636;28;20047;-59
2023/01/20 06:06:46;;;;;;;52.47;26.20;;;;;;;-0.60;100.00;101222.34;5052556;28;20139;-59
2023/01/20 06:09:11;;;;;;;53.58;26.58;;;;;;;-0.60;100.00;101225.84;5050711;28;20037;-58
2023/01/20 06:11:36;;;;;;;51.00;25.65;;;;;;;-0.60;100.00;101225.84;5052683;28;20027;-58
2023/01/20 06:14:02;;;;;;;49.65;25.77;;;;;;;-0.61;100.00;101225.88;5052267;28;20029;-57
2023/01/20 06:16:28;;;;;;;48.45;25.45;;;;;;;-0.61;100.00;101233.69;5048581;28;20024;-58
2023/01/20 06:18:54;;;;;;;50.05;24.90;;;;;;;-0.60;100.00;101227.56;5050004;28;20365;-57
2023/01/20 06:21:19;;;;;;;53.90;25.83;;;;;;;-0.58;100.00;101233.63;5052494;28;20027;-58
2023/01/20 06:23:44;;;;;;;49.75;25.92;;;;;;;-0.59;100.00;101226.69;5041670;28;20044;-58
2023/01/20 06:26:11;;;;;;;48.67;24.58;;;;;;;-0.59;100.00;101235.34;5052287;28;20066;-57
2023/01/20 06:28:37;;;;;;;51.17;26.52;;;;;;;-0.58;100.00;101236.25;5052119;28;20429;-58
2023/01/20 06:31:14;;;;;;;51.08;26.08;;;;;;;-0.59;100.00;101232.75;5052212;28;20017;-58
2023/01/20 06:33:39;;;;;;;50.42;26.48;;;;;;;-0.58;100.00;101241.44;5042995;28;20040;-56
2023/01/20 06:36:06;;;;;;;48.83;25.23;;;;;;;-0.59;100.00;101234.50;5050050;28;20033;-59
2023/01/20 06:38:33;;;;;;;53.83;26.50;;;;;;;-0.58;100.00;101236.25;5049847;28;20020;-58
2023/01/20 06:41:00;;;;;;;55.55;25.73;;;;;;;-0.59;100.00;101232.75;5050424;28;20044;-58
2023/01/20 06:43:28;;;;;;;51.63;27.33;;;;;;;-0.60;100.00;101227.56;5039383;28;20505;-58
2023/01/20 06:45:58;;;;;;;52.95;26.65;;;;;;;-0.59;100.00;101232.75;5052380;28;20052;-59
2023/01/20 06:48:23;;;;;;;51.00;26.13;;;;;;;-0.59;100.00;101230.13;5051327;28;20032;-59
2023/01/20 06:50:48;;;;;;;54.47;26.52;;;;;;;-0.60;100.00;101225.84;5043889;28;20037;-59
2023/01/20 06:53:13;;;;;;;51.75;26.00;;;;;;;-0.59;100.00;101224.91;5051551;28;20029;-59
2023/01/20 06:55:39;;;;;;;51.75;26.27;;;;;;;-0.60;100.00;101219.72;5045558;28;20091;-58
2023/01/20 06:58:04;;;;;;;55.60;26.27;;;;;;;-0.62;100.00;101226.75;5050195;28;20033;-59
2023/01/20 07:00:29;;;;;;;53.60;25.90;;;;;;;-0.61;100.00;101226.72;5051728;28;20029;-57
2023/01/20 07:02:54;;;;;;;49.95;25.50;;;;;;;-0.60;100.00;101231.06;5048306;28;20032;-60
2023/01/20 07:05:20;;;;;;;51.70;25.67;;;;;;;-0.61;100.00;101223.25;5051476;28;20087;-59
2023/01/20 07:07:45;;;;;;;50.10;25.85;;;;;;;-0.64;100.00;101221.56;5051508;28;20088;-59
2023/01/20 07:10:11;;;;;;;49.88;24.90;;;;;;;-0.65;100.00;101225.09;5052351;28;20021;-60
2023/01/20 07:12:36;;;;;;;51.63;25.42;;;;;;;-0.66;100.00;101225.97;5043855;28;20039;-59
2023/01/20 07:15:03;;;;;;;51.20;25.17;;;;;;;-0.66;100.00;101220.75;5055948;28;20502;-59
2023/01/20 07:17:28;;;;;;;53.53;25.00;;;;;;;-0.68;100.00;101227.75;5055310;28;20447;-59
2023/01/20 07:19:53;;;;;;;45.90;25.92;;;;;;;-0.68;100.00;101232.09;5050065;28;20119;-59
2023/01/20 07:22:19;;;;;;;46.72;25.42;;;;;;;-0.70;100.00;101224.34;5049428;28;20033;-59
2023/01/20 07:24:44;;;;;;;47.42;25.52;;;;;;;-0.68;100.00;101232.09;5038507;28;20041;-58
2023/01/20 07:27:09;;;;;;;52.83;26.67;;;;;;;-0.68;100.00;101235.59;5041031;28;20036;-58
2023/01/20 07:29:35;;;;;;;53.47;26.05;;;;;;;-0.70;100.00;101233.91;5049351;28;20699;-59
2023/01/20 07:32:00;;;;;;;50.67;25.45;;;;;;;-0.70;100.00;101234.78;5033899;28;20088;-61
2023/01/20 07:34:25;;;;;;;48.88;23.90;;;;;;;-0.69;100.00;101236.47;5041673;28;20040;-57
2023/01/20 07:36:52;;;;;;;50.67;25.42;;;;;;;-0.70;100.00;101245.22;5041399;28;20387;-59
2023/01/20 07:39:18;;;;;;;44.65;26.40;;;;;;;-0.71;100.00;101248.69;5041832;28;20483;-59
2023/01/20 07:41:47;;;;;;;53.38;26.48;;;;;;;-0.70;100.00;101254.75;5039602;28;20032;-59
2023/01/20 07:44:13;;;;;;;47.10;24.55;;;;;;;-0.68;100.00;101258.19;5038937;28;20038;-58
2023/01/20 07:46:38;;;;;;;45.67;25.10;;;;;;;-0.67;100.00;101258.16;5038599;28;20031;-59
2023/01/20 07:49:03;;;;;;;49.13;25.55;;;;;;;-0.67;100.00;101259.91;5039720;28;20075;-59
2023/01/20 07:51:29;;;;;;;47.40;24.80;;;;;;;-0.65;100.00;101271.16;5042175;28;20402;-59
2023/01/20 07:53:54;;;;;;;46.55;25.00;;;;;;;-0.64;100.00;101275.50;5040912;28;20044;-59
2023/01/20 07:56:25;;;;;;;49.00;25.38;;;;;;;-0.64;100.00;101281.56;5040931;28;20029;-58
2023/01/20 07:58:52;;;;;;;46.22;25.30;;;;;;;-0.64;100.00;101281.56;5041660;28;20038;-58
2023/01/20 08:01:28;;;;;;;51.20;25.83;;;;;;;-0.63;100.00;101278.06;5052257;28;20479;-57
2023/01/20 08:03:54;;;;;;;44.50;24.30;;;;;;;-0.64;100.00;101276.34;5036394;28;20034;-59
2023/01/20 08:06:23;;;;;;;46.08;24.50;;;;;;;-0.65;100.00;101282.47;5041520;28;20032;-59
2023/01/20 08:08:48;;;;;;;45.38;22.92;;;;;;;-0.62;100.00;101281.53;5042721;28;20439;-58
2023/01/20 08:11:15;;;;;;;40.38;22.73;;;;;;;-0.63;100.00;101279.84;5042665;28;20037;-58
2023/01/20 08:13:41;;;;;;;44.95;22.95;;;;;;;-0.62;100.00;101285.00;5044808;28;20435;-58
2023/01/20 08:16:09;;;;;;;44.80;23.25;;;;;;;-0.62;100.00;101278.94;5042560;28;20029;-58
2023/01/20 08:18:35;;;;;;;43.63;23.05;;;;;;;-0.62;100.00;101276.31;5045210;28;20558;-58
2023/01/20 08:21:05;;;;;;;39.92;23.20;;;;;;;-0.60;100.00;101283.22;5049597;28;20116;-58
2023/01/20 08:23:30;;;;;;;40.03;21.80;;;;;;;-0.59;100.00;101278.88;5046656;28;20094;-57
2023/01/20 08:26:01;;;;;;;39.40;22.38;;;;;;;-0.58;100.00;101283.19;5043618;28;20442;-58
2023/01/20 08:28:27;;;;;;;39.90;21.88;;;;;;;-0.58;100.00;101291.03;5037431;28;20073;-57
2023/01/20 08:30:53;;;;;;;40.60;22.92;;;;;;;-0.58;100.00;101289.25;5042377;28;20482;-57
2023/01/20 08:33:18;;;;;;;36.45;21.52;;;;;;;-0.57;100.00;101284.91;5050279;28;20044;-58
2023/01/20 08:35:43;;;;;;;43.72;23.13;;;;;;;-0.58;100.00;101288.41;5047047;28;20493;-58
2023/01/20 08:38:09;;;;;;;40.60;21.65;;;;;;;-0.56;100.00;101282.25;5051442;28;20045;-59
2023/01/20 08:40:34;;;;;;;37.28;21.17;;;;;;;-0.57;100.00;101290.09;5048985;28;20506;-59
2023/01/20 08:42:59;;;;;;;37.40;20.60;;;;;;;-0.54;100.00;101291.81;5038085;28;20443;-57
2023/01/20 08:45:25;;;;;;;37.53;21.63;;;;;;;-0.56;100.00;101289.22;5045556;28;20383;-58
2023/01/20 08:47:50;;;;;;;36.30;20.85;;;;;;;-0.56;100.00;101287.47;5045658;28;20108;-58
2023/01/20 08:50:17;;;;;;;37.47;21.52;;;;;;;-0.53;100.00;101288.28;5050274;28;20027;-60
2023/01/20 08:52:42;;;;;;;37.22;21.95;;;;;;;-0.53;100.00;101293.50;5052447;28;20033;-60
2023/01/20 08:55:08;;;;;;;36.83;21.05;;;;;;;-0.53;100.00;101298.72;5052212;28;20113;-58
2023/01/20 08:57:34;;;;;;;38.83;21.55;;;;;;;-0.54;100.00;101297.88;5047796;28;20029;-59
2023/01/20 09:00:00;;;;;;;36.05;21.63;;;;;;;-0.53;100.00;101293.50;5043193;28;20037;-59
2023/01/20 09:02:25;;;;;;;37.40;21.02;;;;;;;-0.54;100.00;101303.09;5021412;28;20033;-58
2023/01/20 09:04:51;;;;;;;36.80;21.00;;;;;;;-0.53;100.00;101298.72;5038675;28;20239;-58
2023/01/20 09:07:18;;;;;;;40.33;22.10;;;;;;;-0.54;100.00;101297.03;5035443;28;20368;-58
2023/01/20 09:09:44;;;;;;;36.65;20.48;;;;;;;-0.54;100.00;101295.25;5017285;28;20067;-58
2023/01/20 09:12:09;;;;;;;37.30;21.77;;;;;;;-0.52;100.00;101300.44;5047675;28;20100;-58
2023/01/20 09:14:34;;;;;;;38.00;22.00;;;;;;;-0.52;100.00;101309.13;5035060;28;20140;-59
2023/01/20 09:17:01;;;;;;;37.35;22.60;;;;;;;-0.53;100.00;101303.94;5040588;28;20065;-57
2023/01/20 09:19:27;;;;;;;35.65;20.83;;;;;;;-0.52;100.00;101306.50;5040457;28;20049;-58
2023/01/20 09:21:52;;;;;;;36.17;21.17;;;;;;;-0.51;100.00;101302.19;5039977;28;20029;-58
2023/01/20 09:24:17;;;;;;;35.53;20.65;;;;;;;-0.51;100.00;101299.56;5039159;28;20049;-56
2023/01/20 09:26:44;;;;;;;36.65;21.67;;;;;;;-0.50;100.00;101301.25;5041372;28;20495;-57
2023/01/20 09:29:14;;;;;;;38.15;21.58;;;;;;;-0.51;100.00;101296.97;5038882;28;20102;-57
2023/01/20 09:31:49;;;;;;;31.48;19.98;;;;;;;-0.50;100.00;101302.16;5022931;28;20040;-57
2023/01/20 09:34:18;;;;;;;35.28;21.65;;;;;;;-0.49;100.00;101308.22;5036647;28;20052;-57
2023/01/20 09:36:44;;;;;;;34.15;20.83;;;;;;;-0.49;100.00;101298.63;5039613;28;20029;-58
2023/01/20 09:45:21;;;;;;;31.17;19.70;;;;;;;-0.47;100.00;101322.91;5035529;28;20096;-58
2023/01/20 09:47:48;;;;;;;32.53;20.15;;;;;;;-0.50;100.00;101323.03;5034398;28;20738;-57
2023/01/20 09:53:33;;;;;;;32.83;20.08;;;;;;;-0.50;100.00;101328.22;5039485;28;20427;-58
2023/01/20 09:56:03;;;;;;;29.83;18.55;;;;;;;-0.49;100.00;101331.69;5037388;28;20053;-56
2023/01/20 09:58:44;;;;;;;30.33;18.58;;;;;;;-0.50;100.00;101329.97;5027033;28;20036;-58
2023/01/20 10:01:31;;;;;;;32.20;18.73;;;;;;;-0.51;100.00;101318.69;5048867;28;20472;-57
2023/01/20 10:04:18;;;;;;;29.30;19.10;;;;;;;-0.51;100.00;101328.28;5040676;28;20032;-57
2023/01/20 10:07:09;;;;;;;28.45;17.85;;;;;;;-0.52;100.00;101327.38;5039659;28;20112;-59
2023/01/20 10:09:44;;;;;;;27.20;16.63;;;;;;;-0.55;100.00;101314.41;5039744;28;20037;-58
2023/01/20 10:12:17;;;;;;;25.25;16.40;;;;;;;-0.59;100.00;101308.41;5049675;28;20029;-57
2023/01/20 10:14:47;;;;;;;26.73;16.05;;;;;;;-0.62;100.00;101313.69;5044391;28;20041;-58
2023/01/20 10:17:12;;;;;;;24.85;15.82;;;;;;;-0.60;100.00;101321.47;5045503;28;20052;-58
2023/01/20 10:19:44;;;;;;;22.87;15.37;;;;;;;-0.61;100.00;101325.84;5057896;28;20025;-57
2023/01/20 10:22:33;;;;;;;25.42;14.45;;;;;;;-0.60;100.00;101318.88;5049009;28;20283;-58
2023/01/20 10:25:16;;;;;;;21.00;13.45;;;;;;;-0.57;100.00;101321.41;5034008;28;20029;-56
2023/01/20 10:27:57;;;;;;;20.67;14.50;;;;;;;-0.56;100.00;101321.38;5039906;28;20094;-58
2023/01/20 10:30:28;;;;;;;23.70;14.68;;;;;;;-0.54;100.00;101313.53;5038158;28;20041;-57
2023/01/20 10:32:56;;;;;;;20.42;13.73;;;;;;;-0.52;100.00;101308.28;5045480;28;20032;-58
2023/01/20 10:35:26;;;;;;;20.85;13.32;;;;;;;-0.51;100.00;101310.84;5050447;28;20029;-58
2023/01/20 10:37:54;;;;;;;23.60;14.05;;;;;;;-0.49;100.00;101310.81;5055093;28;20378;-59
2023/01/20 10:40:22;;;;;;;21.08;13.60;;;;;;;-0.48;100.00;101312.50;5045360;28;20536;-58
2023/01/20 10:42:53;;;;;;;20.13;13.35;;;;;;;-0.49;100.00;101309.06;5038816;28;20053;-57
2023/01/20 10:45:33;;;;;;;19.85;12.95;;;;;;;-0.47;100.00;101306.41;5041948;28;20040;-58
2023/01/20 10:48:06;;;;;;;21.88;14.55;;;;;;;-0.44;100.00;101315.03;5048797;28;20032;-57
2023/01/20 10:50:46;;;;;;;19.67;13.45;;;;;;;-0.42;100.00;101313.25;5050359;28;20033;-58
2023/01/20 10:53:20;;;;;;;19.63;13.43;;;;;;;-0.39;100.00;101312.31;5034258;28;20025;-58
2023/01/20 10:55:48;;;;;;;19.05;12.63;;;;;;;-0.38;100.00;101314.03;5031915;28;20080;-58
2023/01/20 10:58:19;;;;;;;17.50;12.35;;;;;;;-0.38;100.00;101307.06;5034087;28;20029;-57
2023/01/20 11:00:44;;;;;;;19.45;12.35;;;;;;;-0.37;100.00;101310.53;5032989;28;20083;-60
2023/01/20 11:03:16;;;;;;;19.38;12.90;;;;;;;-0.33;100.00;101309.56;5034142;28;20037;-58
2023/01/20 11:05:42;;;;;;;19.60;12.23;;;;;;;-0.30;100.00;101309.50;5033654;28;20032;-59
2023/01/20 11:08:20;;;;;;;18.38;12.65;;;;;;;-0.25;100.00;101309.38;5040825;28;20025;-58
2023/01/20 11:10:48;;;;;;;18.52;13.23;;;;;;;-0.24;100.00;101316.31;5036642;28;20041;-59
2023/01/20 11:13:13;;;;;;;18.58;12.82;;;;;;;-0.22;100.00;101315.41;5050314;28;20029;-58
2023/01/20 11:15:48;;;;;;;20.50;13.25;;;;;;;-0.20;100.00;101317.94;5036845;28;20392;-58
2023/01/20 11:18:13;;;;;;;20.17;12.45;;;;;;;-0.20;100.00;101316.22;5046193;28;20053;-57